Time;durP1;ratioP1;P1;durP2;ratioP2;P2;SDS_P1;SDS_P2;PMS_P1;PMS_P2;Temp;Humidity;BMP_temperature;BMP_pressure;BME280_temperature;BME280_humidity;BME280_pressure;Samples;Min_cycle;Max_cycle;Signal;HPM_P1;HPM_P2
2021/09/07 00:01:28;;;;;;;7.93;2.08;;;17.70;58.30;;;;;;5109744;28;20024;-69
2021/09/07 00:03:55;;;;;;;6.82;2.58;;;17.80;56.90;;;;;;5109183;28;20024;-69
2021/09/07 00:06:23;;;;;;;7.40;2.38;;;17.90;59.80;;;;;;5108478;28;20020;-69
2021/09/07 00:08:50;;;;;;;6.05;2.90;;;18.00;59.90;;;;;;5109339;28;20059;-68
2021/09/07 00:11:18;;;;;;;5.95;2.17;;;18.10;59.30;;;;;;5109571;28;20115;-69
2021/09/07 00:13:46;;;;;;;6.28;2.28;;;18.10;59.60;;;;;;5109347;28;20035;-72
2021/09/07 00:16:13;;;;;;;5.45;1.90;;;18.10;58.80;;;;;;5109175;28;20066;-71
2021/09/07 00:18:41;;;;;;;5.03;2.22;;;18.30;56.00;;;;;;5109662;28;20046;-71
2021/09/07 00:21:09;;;;;;;4.55;2.10;;;18.40;55.10;;;;;;5109434;28;20489;-64
2021/09/07 00:23:37;;;;;;;2.75;1.90;;;18.50;58.00;;;;;;5109101;28;20028;-65
2021/09/07 00:26:04;;;;;;;3.20;1.70;;;18.50;58.40;;;;;;5108899;28;20019;-69
2021/09/07 00:28:32;;;;;;;3.63;1.95;;;18.50;56.70;;;;;;5109052;28;20027;-69
2021/09/07 00:30:59;;;;;;;7.28;2.25;;;18.60;58.50;;;;;;5108960;28;20074;-73
2021/09/07 00:33:26;;;;;;;7.45;2.08;;;18.70;54.40;;;;;;5107784;28;20049;-60
2021/09/07 00:35:54;;;;;;;5.80;3.03;;;18.90;54.40;;;;;;5108432;28;20039;-61
2021/09/07 00:38:21;;;;;;;8.38;2.58;;;19.30;49.40;;;;;;5097339;28;20096;-64
2021/09/07 00:40:49;;;;;;;5.88;3.13;;;19.30;52.40;;;;;;5106018;28;20032;-65
2021/09/07 00:43:16;;;;;;;5.40;2.75;;;19.30;52.10;;;;;;5107266;28;20142;-65
2021/09/07 00:45:46;;;;;;;5.38;2.50;;;19.20;53.20;;;;;;5105509;28;20027;-68
2021/09/07 00:48:13;;;;;;;4.45;3.00;;;19.30;55.80;;;;;;5100158;28;20429;-71
2021/09/07 00:50:40;;;;;;;7.68;3.63;;;19.40;52.80;;;;;;5110786;28;20120;-71
2021/09/07 00:53:08;;;;;;;6.68;3.60;;;19.40;53.60;;;;;;5105865;28;20062;-64
2021/09/07 00:55:36;;;;;;;7.90;3.05;;;19.50;52.60;;;;;;5107424;28;20119;-69
2021/09/07 00:58:04;;;;;;;7.43;2.20;;;19.60;51.50;;;;;;5094469;28;20029;-69
2021/09/07 01:00:32;;;;;;;6.53;1.98;;;19.60;50.50;;;;;;5106505;28;20031;-68
2021/09/07 01:02:59;;;;;;;4.13;2.08;;;19.70;51.70;;;;;;5107564;28;20047;-72
2021/09/07 01:05:27;;;;;;;4.47;2.13;;;19.80;54.50;;;;;;5107622;28;20015;-70
2021/09/07 01:07:54;;;;;;;4.20;1.83;;;19.90;54.60;;;;;;5098532;28;20027;-67
2021/09/07 01:10:22;;;;;;;4.15;1.98;;;19.90;51.80;;;;;;5107180;28;20035;-73
2021/09/07 01:12:50;;;;;;;6.65;2.10;;;20.00;52.40;;;;;;5105997;28;20118;-65
2021/09/07 01:15:17;;;;;;;3.60;1.88;;;20.10;49.80;;;;;;5107338;28;20135;-65
2021/09/07 01:17:45;;;;;;;4.60;2.00;;;20.20;50.60;;;;;;5101597;28;20125;-62
2021/09/07 01:20:13;;;;;;;6.13;1.83;;;20.30;54.40;;;;;;5104684;28;20501;-65
2021/09/07 01:22:40;;;;;;;3.53;1.98;;;20.40;50.70;;;;;;5107796;28;20431;-71
2021/09/07 01:25:08;;;;;;;5.90;2.22;;;20.50;49.80;;;;;;5107792;28;20039;-61
2021/09/07 01:27:36;;;;;;;2.35;1.65;;;20.50;52.40;;;;;;5100946;28;20030;-66
2021/09/07 01:30:04;;;;;;;3.83;2.03;;;20.70;52.30;;;;;;5102347;28;20039;-63
2021/09/07 01:32:31;;;;;;;3.75;2.20;;;20.60;50.50;;;;;;5098934;28;20034;-67
2021/09/07 01:34:59;;;;;;;5.78;1.60;;;20.70;49.40;;;;;;5106730;28;20440;-65
2021/09/07 01:37:27;;;;;;;5.07;1.95;;;20.80;51.30;;;;;;5099021;28;20030;-70
2021/09/07 01:39:54;;;;;;;5.07;2.15;;;20.90;50.80;;;;;;5104268;28;20020;-64
2021/09/07 01:42:24;;;;;;;4.05;2.15;;;20.80;49.00;;;;;;5104375;28;20052;-70
2021/09/07 01:44:51;;;;;;;7.05;3.03;;;20.90;47.30;;;;;;5106989;28;20068;-70
2021/09/07 01:47:19;;;;;;;3.13;1.65;;;20.90;51.50;;;;;;5100605;28;20046;-72
2021/09/07 01:49:46;;;;;;;2.83;1.88;;;21.00;53.10;;;;;;5103465;28;20039;-70
2021/09/07 01:52:16;;;;;;;3.53;1.50;;;21.10;50.90;;;;;;5085825;28;20070;-66
2021/09/07 01:54:47;;;;;;;5.15;1.83;;;21.10;49.70;;;;;;5087367;28;20035;-67
2021/09/07 01:57:15;;;;;;;4.53;1.77;;;21.20;48.90;;;;;;5099114;28;20019;-64
2021/09/07 01:59:43;;;;;;;4.22;2.17;;;21.30;50.50;;;;;;5101977;28;20031;-67
2021/09/07 02:02:10;;;;;;;3.65;2.03;;;21.30;50.60;;;;;;5106853;28;20086;-71
2021/09/07 02:04:38;;;;;;;3.90;1.80;;;21.40;52.50;;;;;;5108282;28;20122;-70
2021/09/07 02:07:06;;;;;;;3.85;1.75;;;21.40;51.40;;;;;;5102784;28;20104;-63
2021/09/07 02:09:33;;;;;;;4.18;1.70;;;21.50;50.00;;;;;;5107790;28;20063;-71
2021/09/07 02:12:01;;;;;;;2.90;1.73;;;21.50;47.10;;;;;;5091299;28;20031;-67
2021/09/07 02:14:29;;;;;;;3.70;1.83;;;21.60;48.40;;;;;;5110960;28;20028;-71
2021/09/07 02:16:57;;;;;;;3.55;2.00;;;21.60;49.00;;;;;;5084239;28;21306;-71
2021/09/07 02:19:24;;;;;;;9.27;2.83;;;21.70;49.60;;;;;;5106936;28;20495;-66
2021/09/07 02:21:52;;;;;;;2.40;1.50;;;21.80;49.50;;;;;;5106270;28;20070;-70
2021/09/07 02:24:19;;;;;;;4.25;1.70;;;21.90;45.70;;;;;;5091036;28;20054;-70
2021/09/07 02:27:32;;;;;;;3.03;1.33;;;21.80;46.70;;;;;;5103047;28;20023;-64
2021/09/07 02:29:53;;;;;;;4.85;1.60;;;21.90;50.00;;;;;;5102776;28;20048;-71
2021/09/07 02:32:20;;;;;;;4.65;2.13;;;21.90;45.90;;;;;;5110213;28;20027;-69
2021/09/07 02:34:48;;;;;;;2.28;1.50;;;22.00;48.80;;;;;;5107238;28;20484;-63
2021/09/07 02:37:15;;;;;;;6.03;1.77;;;22.00;52.80;;;;;;5082948;28;20035;-67
2021/09/07 02:39:43;;;;;;;2.75;1.70;;;22.10;48.90;;;;;;5107129;28;20054;-63
2021/09/07 02:42:10;;;;;;;2.45;1.15;;;22.10;47.10;;;;;;5108386;28;20100;-62
2021/09/07 02:44:37;;;;;;;3.60;1.60;;;22.20;46.20;;;;;;5091679;28;20043;-70
2021/09/07 02:47:05;;;;;;;3.20;1.65;;;22.20;49.30;;;;;;5081863;28;20020;-72
2021/09/07 02:49:33;;;;;;;2.15;1.13;;;22.10;46.60;;;;;;5107663;28;20031;-66
2021/09/07 02:52:00;;;;;;;2.53;1.52;;;22.20;50.10;;;;;;5091530;28;20607;-69
2021/09/07 02:54:27;;;;;;;2.95;1.40;;;22.20;48.60;;;;;;5109117;27;20023;-65
2021/09/07 02:56:58;;;;;;;1.67;1.42;;;22.40;49.00;;;;;;5103770;28;20466;-66
2021/09/07 02:59:26;;;;;;;3.15;1.60;;;22.30;49.80;;;;;;5086016;28;20034;-65
2021/09/07 03:01:53;;;;;;;8.15;2.78;;;22.40;48.00;;;;;;5109532;28;20033;-72
2021/09/07 03:04:21;;;;;;;33.58;14.93;;;22.30;46.30;;;;;;5109342;28;20036;-68
2021/09/07 03:06:49;;;;;;;67.45;32.47;;;22.40;48.50;;;;;;5104306;28;20505;-69
2021/09/07 03:09:16;;;;;;;103.57;50.10;;;22.50;50.60;;;;;;5111856;28;20023;-69
2021/09/07 03:11:44;;;;;;;149.20;76.97;;;22.50;49.30;;;;;;5108707;27;20510;-66
2021/09/07 03:14:11;;;;;;;149.20;77.13;;;22.50;50.20;;;;;;5109674;28;20023;-63
2021/09/07 03:16:38;;;;;;;189.35;91.50;;;22.50;50.60;;;;;;5102210;28;20027;-70
2021/09/07 03:19:06;;;;;;;184.10;88.68;;;22.50;51.50;;;;;;5108358;28;20027;-69
2021/09/07 03:21:33;;;;;;;205.30;104.10;;;22.60;46.80;;;;;;5109105;28;20028;-67
2021/09/07 03:24:01;;;;;;;191.52;91.63;;;22.60;50.60;;;;;;5108441;28;20466;-69
2021/09/07 03:26:31;;;;;;;207.93;108.60;;;22.60;49.40;;;;;;5102149;28;20659;-65
2021/09/07 03:28:58;;;;;;;201.40;100.65;;;22.60;51.60;;;;;;5088595;28;20063;-66
2021/09/07 03:31:26;;;;;;;160.65;82.07;;;22.60;52.00;;;;;;5108514;28;20024;-63
2021/09/07 03:33:54;;;;;;;188.18;98.72;;;22.70;46.60;;;;;;5109674;28;20660;-67
2021/09/07 03:36:22;;;;;;;191.18;98.78;;;22.60;51.50;;;;;;5105291;28;20493;-71
2021/09/07 03:38:50;;;;;;;198.98;101.65;;;22.60;48.00;;;;;;5104006;28;20028;-65
2021/09/07 03:41:17;;;;;;;165.35;89.28;;;22.70;51.80;;;;;;5108310;28;20051;-70
2021/09/07 03:43:45;;;;;;;178.30;92.82;;;22.60;51.00;;;;;;5108423;28;20084;-64
2021/09/07 03:46:12;;;;;;;183.15;93.45;;;22.70;48.40;;;;;;5105367;28;20043;-67
2021/09/07 03:48:40;;;;;;;192.60;97.72;;;22.60;48.80;;;;;;5101573;28;20482;-68
2021/09/07 03:51:12;;;;;;;164.90;80.20;;;22.70;49.70;;;;;;5108085;28;20562;-60
2021/09/07 03:53:39;;;;;;;156.45;81.55;;;22.80;48.80;;;;;;5108309;28;20032;-68
2021/09/07 03:56:07;;;;;;;179.77;93.20;;;22.80;46.90;;;;;;5105435;28;20024;-66
2021/09/07 03:58:34;;;;;;;185.18;99.93;;;22.80;49.20;;;;;;5099754;28;20110;-70
2021/09/07 04:01:02;;;;;;;178.95;91.13;;;22.80;51.50;;;;;;5106106;28;20026;-67
2021/09/07 04:03:29;;;;;;;125.18;65.68;;;22.80;48.20;;;;;;5107966;28;20377;-68
2021/09/07 04:05:57;;;;;;;145.63;77.40;;;22.80;45.30;;;;;;5108482;28;20020;-67
2021/09/07 04:08:24;;;;;;;143.43;76.53;;;22.70;49.90;;;;;;5102019;28;20391;-63
2021/09/07 04:10:55;;;;;;;167.45;84.05;;;22.80;50.40;;;;;;5106530;28;20016;-68
2021/09/07 04:13:22;;;;;;;130.30;68.95;;;22.80;49.30;;;;;;5104453;28;20414;-63
2021/09/07 04:15:50;;;;;;;164.50;85.90;;;22.80;50.60;;;;;;5100408;28;20054;-71
2021/09/07 04:18:17;;;;;;;137.77;75.85;;;22.80;51.40;;;;;;5101138;28;20432;-73
2021/09/07 04:20:45;;;;;;;144.60;73.57;;;22.80;49.60;;;;;;5103451;28;20051;-71
2021/09/07 04:23:12;;;;;;;165.07;89.45;;;22.80;46.30;;;;;;5107310;28;20036;-71
2021/09/07 04:25:40;;;;;;;133.68;68.90;;;22.90;50.80;;;;;;5108042;28;20028;-68
2021/09/07 04:28:07;;;;;;;154.65;86.03;;;23.00;48.60;;;;;;5109612;28;20103;-70
2021/09/07 04:30:34;;;;;;;147.07;76.50;;;23.00;52.00;;;;;;5108181;28;20039;-69
2021/09/07 04:33:02;;;;;;;114.97;65.07;;;23.00;50.00;;;;;;5108076;28;20023;-71
2021/09/07 04:35:29;;;;;;;137.23;76.78;;;23.10;50.20;;;;;;5109148;28;20020;-69
2021/09/07 04:37:57;;;;;;;121.28;65.07;;;23.10;51.20;;;;;;5091353;28;20015;-68
2021/09/07 04:40:25;;;;;;;125.75;64.80;;;23.10;47.10;;;;;;5108909;28;20023;-68
2021/09/07 04:42:53;;;;;;;124.47;65.85;;;23.10;51.00;;;;;;5108908;28;20067;-61
2021/09/07 04:45:21;;;;;;;134.50;71.25;;;23.10;50.40;;;;;;5109213;28;20023;-67
2021/09/07 04:47:48;;;;;;;130.70;68.75;;;23.10;49.00;;;;;;5109034;28;20027;-67
2021/09/07 04:50:16;;;;;;;122.82;67.22;;;23.00;50.90;;;;;;5091818;28;20084;-66
2021/09/07 04:52:43;;;;;;;101.57;55.72;;;23.00;48.20;;;;;;5108515;28;20106;-66
2021/09/07 04:55:11;;;;;;;116.82;63.90;;;23.10;46.60;;;;;;5110278;28;20023;-68
2021/09/07 04:57:38;;;;;;;117.70;63.00;;;23.10;48.20;;;;;;5109722;28;20103;-67
2021/09/07 05:00:07;;;;;;;124.18;69.57;;;23.10;49.50;;;;;;5109208;28;20022;-70
2021/09/07 05:02:35;;;;;;;108.50;61.95;;;23.10;51.10;;;;;;5108515;28;20382;-70
2021/09/07 05:05:07;;;;;;;124.45;68.15;;;23.10;49.10;;;;;;5108490;28;20041;-63
2021/09/07 05:07:35;;;;;;;100.28;54.10;;;23.10;52.00;;;;;;5108652;28;20020;-65
2021/09/07 05:10:04;;;;;;;109.65;61.60;;;23.10;49.80;;;;;;5108592;28;20096;-72
2021/09/07 05:12:31;;;;;;;112.38;62.85;;;23.20;51.40;;;;;;5109071;28;20054;-68
2021/09/07 05:14:59;;;;;;;102.45;56.67;;;23.20;50.70;;;;;;5109695;28;20024;-66
2021/09/07 05:17:26;;;;;;;87.05;47.88;;;23.20;49.60;;;;;;5110027;28;20047;-68
2021/09/07 05:19:54;;;;;;;118.05;64.07;;;23.20;46.90;;;;;;5109192;28;20020;-66
2021/09/07 05:22:21;;;;;;;124.78;69.13;;;23.20;50.90;;;;;;5093424;28;20034;-66
2021/09/07 05:24:48;;;;;;;100.43;54.45;;;23.20;51.50;;;;;;5088675;28;20024;-62
2021/09/07 05:27:16;;;;;;;100.75;56.10;;;23.30;47.00;;;;;;5088397;28;20031;-64
2021/09/07 05:29:44;;;;;;;110.65;62.28;;;23.30;50.70;;;;;;5106278;28;20036;-66
2021/09/07 05:32:11;;;;;;;84.07;47.13;;;23.20;52.00;;;;;;5097056;28;20513;-68
2021/09/07 05:35:01;;;;;;;86.97;52.00;;;23.30;49.10;;;;;;5108065;28;20096;-64
2021/09/07 05:37:29;;;;;;;79.25;43.72;;;23.40;50.40;;;;;;5057199;28;20031;-67
2021/09/07 05:39:57;;;;;;;94.25;50.88;;;23.40;47.20;;;;;;5110000;28;20037;-67
2021/09/07 05:42:24;;;;;;;82.60;49.03;;;23.40;50.70;;;;;;5099574;28;20383;-70
2021/09/07 05:44:51;;;;;;;98.85;54.55;;;23.50;45.40;;;;;;5111395;28;20055;-66
2021/09/07 05:47:22;;;;;;;100.00;55.78;;;23.50;50.70;;;;;;5110438;28;20116;-69
2021/09/07 05:49:58;;;;;;;88.22;50.50;;;23.40;48.80;;;;;;5110633;28;20084;-71
2021/09/07 05:52:30;;;;;;;85.97;48.72;;;23.50;47.60;;;;;;5100236;28;20467;-69
2021/09/07 05:54:59;;;;;;;;;;;23.50;48.90;;;;;;5111097;28;20035;-71
2021/09/07 05:57:27;;;;;;;88.40;51.40;;;23.60;49.70;;;;;;5110036;28;19968;-69
2021/09/07 05:59:55;;;;;;;83.05;49.42;;;23.50;50.10;;;;;;5110872;28;20034;-71
2021/09/07 06:02:22;;;;;;;79.57;44.35;;;23.40;50.80;;;;;;5100189;28;20028;-66
2021/09/07 06:04:54;;;;;;;89.43;50.40;;;23.40;48.50;;;;;;5110905;28;20027;-67
2021/09/07 06:07:21;;;;;;;;;;;23.30;49.80;;;;;;5111670;27;20110;-70
2021/09/07 06:09:48;;;;;;;71.18;39.80;;;23.20;49.40;;;;;;5091977;28;19912;-70
2021/09/07 06:12:16;;;;;;;79.13;41.72;;;23.30;49.10;;;;;;5100889;28;20124;-66
2021/09/07 06:14:43;;;;;;;90.00;51.00;;;23.30;47.10;;;;;;5110774;28;20019;-72
2021/09/07 06:17:10;;;;;;;49.53;27.27;;;23.20;52.40;;;;;;5110339;28;20023;-65
2021/09/07 06:19:38;;;;;;;38.70;21.70;;;23.30;44.50;;;;;;5092024;28;20020;-57
2021/09/07 06:22:05;;;;;;;51.75;29.25;;;23.50;42.60;;;;;;5100647;28;20024;-63
2021/09/07 06:24:33;;;;;;;37.45;19.35;;;23.60;44.50;;;;;;5107367;28;20024;-63
2021/09/07 06:27:00;;;;;;;36.65;22.17;;;23.60;41.30;;;;;;5110510;28;20441;-62
2021/09/07 06:29:30;;;;;;;60.13;35.33;;;23.60;41.50;;;;;;5109364;28;20039;-66
2021/09/07 06:31:58;;;;;;;61.00;33.92;;;23.20;46.80;;;;;;5100467;28;20049;-68
2021/09/07 06:34:26;;;;;;;52.08;30.23;;;23.00;48.30;;;;;;5091917;28;20051;-65
2021/09/07 06:36:55;;;;;;;64.18;36.10;;;22.80;48.70;;;;;;5108828;28;20030;-66
2021/09/07 06:39:23;;;;;;;60.13;32.85;;;22.70;51.90;;;;;;5109742;28;20031;-67
2021/09/07 06:41:51;;;;;;;52.53;30.75;;;22.60;51.00;;;;;;5103815;28;20109;-70
2021/09/07 06:44:19;;;;;;;43.42;26.33;;;22.60;48.30;;;;;;5109474;27;20019;-74
2021/09/07 06:46:46;;;;;;;56.10;31.38;;;22.60;48.40;;;;;;5110960;28;20084;-65
2021/09/07 06:49:14;;;;;;;58.60;33.22;;;22.60;49.00;;;;;;5076268;28;20817;-68
2021/09/07 06:51:41;;;;;;;49.15;29.52;;;22.60;48.30;;;;;;5104999;28;20542;-69
2021/09/07 06:54:09;;;;;;;44.95;27.58;;;22.60;48.70;;;;;;5101768;28;20117;-72
2021/09/07 06:56:36;;;;;;;45.25;27.95;;;22.60;50.70;;;;;;5106879;28;20103;-72
2021/09/07 06:59:04;;;;;;;48.33;32.67;;;22.60;49.90;;;;;;5109675;28;20461;-69
2021/09/07 07:01:49;;;;;;;44.83;30.45;;;22.60;48.90;;;;;;5087188;28;20531;-62
2021/09/07 07:04:17;;;;;;;53.88;32.20;;;22.50;50.20;;;;;;5102050;28;20030;-68
2021/09/07 07:06:44;;;;;;;47.55;32.25;;;22.50;50.90;;;;;;5090614;28;20074;-66
2021/09/07 07:09:12;;;;;;;43.78;26.55;;;22.40;51.70;;;;;;5109381;28;20024;-63
2021/09/07 07:11:39;;;;;;;50.00;35.28;;;22.30;50.30;;;;;;5100697;28;20119;-68
2021/09/07 07:14:06;;;;;;;48.50;33.30;;;22.20;52.40;;;;;;5103706;28;20517;-62
2021/09/07 07:16:34;;;;;;;69.63;53.88;;;22.00;53.40;;;;;;5110278;28;20110;-67
2021/09/07 07:19:01;;;;;;;59.90;45.65;;;22.00;53.70;;;;;;5109367;28;20051;-68
2021/09/07 07:21:29;;;;;;;50.65;35.10;;;21.80;53.80;;;;;;5109235;28;20023;-73
2021/09/07 07:23:57;;;;;;;44.22;29.83;;;21.80;54.10;;;;;;5101184;28;20019;-72
2021/09/07 07:26:25;;;;;;;49.53;33.38;;;21.60;54.40;;;;;;5085700;28;20039;-66
2021/09/07 07:28:52;;;;;;;50.15;33.95;;;21.40;54.90;;;;;;5102297;28;20035;-71
2021/09/07 07:31:20;;;;;;;48.42;34.92;;;21.20;55.60;;;;;;5107307;28;20092;-72
2021/09/07 07:33:47;;;;;;;53.60;35.75;;;21.00;56.00;;;;;;5097012;28;20035;-65
2021/09/07 07:36:18;;;;;;;49.20;33.40;;;20.90;56.40;;;;;;5108784;28;20027;-67
2021/09/07 07:38:46;;;;;;;58.40;35.50;;;20.90;57.40;;;;;;5108426;28;20023;-69
2021/09/07 07:41:13;;;;;;;48.97;33.97;;;20.70;57.10;;;;;;5089136;28;20035;-72
2021/09/07 07:43:44;;;;;;;43.75;28.77;;;20.60;57.40;;;;;;5104344;28;20114;-70
2021/09/07 07:46:18;;;;;;;51.38;33.28;;;20.60;57.70;;;;;;5097528;28;20059;-72
2021/09/07 07:48:46;;;;;;;49.67;32.97;;;20.40;57.80;;;;;;5096186;28;20482;-72
2021/09/07 07:51:17;;;;;;;51.00;33.85;;;20.40;58.30;;;;;;5114129;28;20539;-74
2021/09/07 07:53:44;;;;;;;48.28;30.55;;;20.20;58.60;;;;;;5111860;28;20358;-67
2021/09/07 07:56:12;;;;;;;47.47;31.23;;;20.10;59.00;;;;;;5113380;28;20073;-72
2021/09/07 07:58:40;;;;;;;42.75;28.23;;;20.10;59.00;;;;;;5113053;28;20024;-74
2021/09/07 08:01:08;;;;;;;35.97;24.05;;;20.00;59.30;;;;;;5113795;28;20016;-68
2021/09/07 08:03:35;;;;;;;41.40;29.50;;;20.00;59.60;;;;;;5094962;28;20023;-71
2021/09/07 08:06:03;;;;;;;44.22;27.45;;;19.90;59.90;;;;;;5113848;28;20046;-73
2021/09/07 08:08:30;;;;;;;40.35;25.73;;;19.90;60.10;;;;;;5113373;28;20394;-70
2021/09/07 08:10:58;;;;;;;33.20;24.40;;;19.80;60.20;;;;;;5115493;28;20423;-70
2021/09/07 08:13:25;;;;;;;38.50;24.88;;;19.70;60.20;;;;;;5093909;28;20104;-71
2021/09/07 08:15:52;;;;;;;43.10;27.30;;;19.70;60.70;;;;;;5112055;28;20370;-63
2021/09/07 08:18:20;;;;;;;38.08;25.15;;;19.60;60.90;;;;;;5114977;28;20467;-71
2021/09/07 08:21:08;;;;;;;39.70;24.75;;;19.60;60.60;;;;;;5113230;28;20074;-70
2021/09/07 08:23:45;;;;;;;39.25;25.40;;;19.60;61.20;;;;;;5113744;28;20028;-71
2021/09/07 08:26:13;;;;;;;41.72;26.38;;;19.50;61.30;;;;;;5094437;28;20465;-71
2021/09/07 08:28:40;;;;;;;39.95;25.70;;;19.50;62.10;;;;;;5092425;28;20138;-73
2021/09/07 08:31:09;;;;;;;33.63;22.88;;;19.40;61.70;;;;;;5095617;28;20019;-71
2021/09/07 08:33:40;;;;;;;42.25;26.65;;;19.30;61.90;;;;;;5095450;28;20022;-69
2021/09/07 08:36:07;;;;;;;39.72;26.38;;;19.30;62.30;;;;;;5091592;28;20559;-72
2021/09/07 08:38:38;;;;;;;36.78;23.27;;;19.30;62.50;;;;;;5097149;28;20146;-70
2021/09/07 08:41:05;;;;;;;44.13;25.75;;;19.30;62.40;;;;;;5109432;28;20030;-66
2021/09/07 08:43:33;;;;;;;50.45;27.75;;;19.30;62.60;;;;;;5108759;28;20057;-65
2021/09/07 08:46:00;;;;;;;65.05;35.10;;;19.30;62.60;;;;;;5104304;28;20724;-64
2021/09/07 08:48:27;;;;;;;71.35;35.53;;;19.30;63.00;;;;;;5089405;28;20020;-72
2021/09/07 08:50:56;;;;;;;92.40;43.40;;;19.30;62.70;;;;;;5074311;28;20035;-70
2021/09/07 08:53:24;;;;;;;96.80;42.67;;;19.30;63.10;;;;;;5086842;28;20116;-67
2021/09/07 08:55:52;;;;;;;97.95;45.92;;;19.30;63.00;;;;;;5099535;28;20514;-64
2021/09/07 08:58:19;;;;;;;97.65;44.97;;;19.30;63.20;;;;;;5076280;28;20038;-72
2021/09/07 09:00:50;;;;;;;93.68;45.17;;;19.20;63.50;;;;;;5084567;28;20093;-70
2021/09/07 09:03:19;;;;;;;98.03;46.50;;;19.20;63.20;;;;;;5104668;28;20039;-68
2021/09/07 09:05:50;;;;;;;98.88;46.10;;;19.20;63.60;;;;;;5099883;28;20363;-69
2021/09/07 09:08:19;;;;;;;99.38;45.35;;;19.20;64.00;;;;;;5078412;28;20469;-67
2021/09/07 09:10:47;;;;;;;100.15;46.80;;;19.10;64.00;;;;;;5107263;28;20172;-67
2021/09/07 09:13:18;;;;;;;89.20;43.95;;;19.10;63.90;;;;;;5079414;28;20059;-64
2021/09/07 09:16:05;;;;;;;92.00;43.42;;;19.10;63.80;;;;;;5097753;28;20031;-69
2021/09/07 09:18:34;;;;;;;80.75;42.83;;;19.10;64.30;;;;;;5084466;28;20133;-65
2021/09/07 09:21:31;;;;;;;86.47;41.78;;;19.10;64.10;;;;;;5107011;28;20080;-69
2021/09/07 09:24:20;;;;;;;82.50;40.60;;;19.00;64.10;;;;;;5088621;28;20083;-67
2021/09/07 09:27:05;;;;;;;91.07;41.40;;;19.00;64.40;;;;;;5099542;28;20394;-64
2021/09/07 09:29:34;;;;;;;72.72;37.55;;;18.90;64.30;;;;;;5105437;28;20036;-65
2021/09/07 09:32:05;;;;;;;68.28;36.10;;;18.90;64.40;;;;;;5107681;28;20024;-63
2021/09/07 09:34:36;;;;;;;80.53;41.35;;;18.90;64.30;;;;;;5109487;28;20055;-66
2021/09/07 09:37:15;;;;;;;72.75;37.58;;;18.90;64.90;;;;;;5100207;28;20054;-75
2021/09/07 09:39:43;;;;;;;81.55;40.65;;;18.90;65.00;;;;;;5105080;28;20081;-67
2021/09/07 09:42:33;;;;;;;75.90;36.05;;;18.90;64.90;;;;;;5104554;28;20046;-71
2021/09/07 09:45:07;;;;;;;75.45;35.42;;;18.80;65.00;;;;;;5106085;28;20031;-64
2021/09/07 09:47:40;;;;;;;73.55;37.08;;;18.80;64.90;;;;;;5096035;28;20055;-69
2021/09/07 09:50:07;;;;;;;;;;;18.80;65.00;;;;;;5106987;28;20051;-65
2021/09/07 09:52:38;;;;;;;63.88;34.95;;;18.80;65.10;;;;;;5088851;28;19910;-63
2021/09/07 09:55:08;;;;;;;71.30;35.97;;;18.80;65.20;;;;;;5088462;28;20103;-64
2021/09/07 09:57:37;;;;;;;71.18;34.40;;;18.80;65.20;;;;;;5095783;28;20028;-62
2021/09/07 10:00:13;;;;;;;76.03;33.95;;;18.80;65.20;;;;;;5106949;28;20376;-66
2021/09/07 10:02:42;;;;;;;64.93;33.47;;;18.80;65.40;;;;;;5085869;28;20020;-68
2021/09/07 10:05:14;;;;;;;70.88;37.05;;;18.70;65.20;;;;;;5103106;28;20517;-66
2021/09/07 10:07:42;;;;;;;60.88;32.63;;;18.70;65.40;;;;;;5094011;28;20020;-70
2021/09/07 10:10:09;;;;;;;61.80;32.47;;;18.70;65.50;;;;;;5106345;28;20043;-68
2021/09/07 10:12:43;;;;;;;68.07;31.80;;;18.70;65.50;;;;;;5106165;28;20393;-65
2021/09/07 10:17:49;;;;;;;54.83;29.60;;;18.70;65.60;;;;;;5097801;28;20081;-67
2021/09/07 10:20:50;;;;;;;53.72;29.70;;;18.70;65.60;;;;;;5103215;28;20028;-64
2021/09/07 10:23:37;;;;;;;54.33;28.08;;;18.60;65.60;;;;;;5094893;28;20046;-63
2021/09/07 10:26:05;;;;;;;53.15;29.00;;;18.60;65.60;;;;;;5103676;28;20032;-68
2021/09/07 10:28:35;;;;;;;45.22;24.08;;;18.60;65.60;;;;;;5108472;28;20111;-65
2021/09/07 10:31:04;;;;;;;55.08;28.30;;;18.60;66.20;;;;;;5109856;28;20034;-67
2021/09/07 10:34:00;;;;;;;47.38;25.50;;;18.60;65.50;;;;;;5110321;28;20016;-62
2021/09/07 10:36:31;;;;;;;50.97;25.65;;;18.60;65.50;;;;;;5098503;28;20328;-70
2021/09/07 10:39:02;;;;;;;45.53;23.23;;;18.60;65.40;;;;;;5090221;28;20061;-68
2021/09/07 10:41:36;;;;;;;51.92;26.15;;;18.60;65.30;;;;;;5109675;28;20088;-62
2021/09/07 10:44:27;;;;;;;41.65;22.70;;;18.50;65.20;;;;;;5110266;28;20027;-68
2021/09/07 10:47:03;;;;;;;48.95;23.48;;;18.50;65.30;;;;;;5102761;28;20840;-68
2021/09/07 10:49:37;;;;;;;44.08;23.20;;;18.50;65.10;;;;;;5104465;28;20024;-65
2021/09/07 10:52:09;;;;;;;35.85;20.58;;;18.50;65.10;;;;;;5108336;28;20053;-65
2021/09/07 10:54:47;;;;;;;38.05;21.15;;;18.50;65.20;;;;;;5109373;28;20527;-70
2021/09/07 10:57:36;;;;;;;40.88;20.42;;;18.50;65.20;;;;;;5098686;28;20146;-66
2021/09/07 11:00:18;;;;;;;40.80;21.48;;;18.50;65.10;;;;;;5088813;28;20036;-69
2021/09/07 11:02:54;;;;;;;39.92;20.17;;;18.40;65.10;;;;;;5108714;28;20035;-62
2021/09/07 11:05:40;;;;;;;39.20;20.98;;;18.40;65.10;;;;;;5109985;28;20711;-64
2021/09/07 11:08:17;;;;;;;35.53;19.80;;;18.40;64.90;;;;;;5083682;28;20023;-63
2021/09/07 11:10:54;;;;;;;37.65;19.77;;;18.40;65.00;;;;;;5106572;28;20047;-65
2021/09/07 11:13:30;;;;;;;36.33;18.13;;;18.40;65.00;;;;;;5109104;28;20027;-67
2021/09/07 11:16:01;;;;;;;37.83;19.35;;;18.40;65.20;;;;;;5103592;28;20050;-63
2021/09/07 11:18:30;;;;;;;39.70;20.08;;;18.40;65.10;;;;;;5085528;28;20031;-68
2021/09/07 11:21:01;;;;;;;38.35;20.48;;;18.40;65.10;;;;;;5089882;28;20028;-70
2021/09/07 11:23:34;;;;;;;36.55;20.60;;;18.40;65.10;;;;;;5109621;28;20023;-69
2021/09/07 11:26:04;;;;;;;36.33;19.73;;;18.30;65.10;;;;;;5102766;28;20019;-65
2021/09/07 11:28:34;;;;;;;39.42;19.63;;;18.30;65.10;;;;;;5103366;28;20218;-65
2021/09/07 11:31:03;;;;;;;37.33;19.50;;;18.30;65.10;;;;;;5108741;28;20062;-68
2021/09/07 11:33:34;;;;;;;32.17;16.52;;;18.30;65.00;;;;;;5108705;27;20034;-68
2021/09/07 11:36:03;;;;;;;36.10;17.58;;;18.30;65.00;;;;;;5110638;28;20466;-74
2021/09/07 11:38:33;;;;;;;32.80;18.00;;;18.30;65.20;;;;;;5109460;28;20039;-69
2021/09/07 11:41:05;;;;;;;28.00;15.63;;;18.30;65.60;;;;;;5110083;27;20104;-67
2021/09/07 11:43:35;;;;;;;29.75;16.27;;;18.20;65.70;;;;;;5109175;28;20044;-69
2021/09/07 11:46:16;;;;;;;26.80;15.68;;;18.20;65.60;;;;;;5111055;28;20027;-64
2021/09/07 11:48:45;;;;;;;31.10;15.55;;;18.20;65.80;;;;;;5110203;28;20028;-74
2021/09/07 11:51:16;;;;;;;19.80;10.07;;;18.10;65.60;;;;;;5110439;28;20031;-66
2021/09/07 11:53:46;;;;;;;29.45;16.42;;;18.10;66.60;;;;;;5110554;28;20035;-70
2021/09/07 11:56:26;;;;;;;32.72;14.98;;;18.10;66.00;;;;;;5110274;28;20048;-66
2021/09/07 11:59:08;;;;;;;30.58;14.98;;;18.10;66.10;;;;;;5110077;28;20030;-65
2021/09/07 12:01:43;;;;;;;26.02;14.15;;;18.10;66.60;;;;;;5091898;28;20152;-69
2021/09/07 12:04:15;;;;;;;29.30;15.63;;;18.00;66.50;;;;;;5110618;28;20045;-65
2021/09/07 12:06:48;;;;;;;30.33;16.70;;;18.00;66.30;;;;;;5110951;28;20023;-72
2021/09/07 12:09:49;;;;;;;33.53;16.88;;;18.00;66.30;;;;;;5111549;28;20038;-61
2021/09/07 12:12:27;;;;;;;30.33;17.40;;;17.90;66.50;;;;;;5110675;28;20031;-71
2021/09/07 12:14:58;;;;;;;31.80;15.30;;;17.90;67.00;;;;;;5111914;28;20019;-67
2021/09/07 12:17:35;;;;;;;34.33;16.23;;;17.90;66.80;;;;;;5110796;28;20529;-70
2021/09/07 12:20:14;;;;;;;28.90;17.23;;;17.90;67.40;;;;;;5110639;28;20020;-66
2021/09/07 12:22:42;;;;;;;29.05;15.57;;;17.90;67.00;;;;;;5110349;28;20031;-73
2021/09/07 12:25:17;;;;;;;31.98;15.85;;;17.90;67.00;;;;;;5110516;28;20434;-68
2021/09/07 12:27:47;;;;;;;28.42;15.15;;;17.80;67.00;;;;;;5110374;28;20500;-67
2021/09/07 12:30:29;;;;;;;28.35;15.25;;;17.90;67.30;;;;;;5110055;28;20140;-65
2021/09/07 12:32:58;;;;;;;;;;;17.80;67.40;;;;;;5109963;28;20030;-70
2021/09/07 12:35:35;;;;;;;27.75;15.27;;;17.80;67.30;;;;;;5110379;28;20344;-67
2021/09/07 12:38:15;;;;;;;29.08;15.88;;;17.80;67.80;;;;;;5109777;28;20106;-64
2021/09/07 12:40:47;;;;;;;25.30;14.27;;;17.70;67.40;;;;;;5109079;28;20474;-64
2021/09/07 12:43:19;;;;;;;29.75;15.45;;;17.70;67.50;;;;;;5109411;28;20695;-72
2021/09/07 12:45:49;;;;;;;29.02;15.35;;;17.70;67.60;;;;;;5109424;28;20020;-67
2021/09/07 12:48:16;;;;;;;30.48;15.35;;;17.70;67.60;;;;;;5109541;28;20094;-71